createdAt,value
2023-01-21T00:01:13.497Z,4.44
2023-01-21T00:03:41.538Z,4.42
2023-01-21T00:06:10.037Z,4.40
2023-01-21T00:08:37.847Z,4.41
2023-01-21T00:11:06.674Z,4.39
2023-01-21T00:13:34.742Z,4.39
2023-01-21T00:16:04.236Z,4.40
2023-01-21T00:18:32.666Z,4.38
2023-01-21T00:21:00.371Z,4.37
2023-01-21T00:23:28.272Z,4.36
2023-01-21T00:25:58.934Z,4.35
2023-01-21T00:28:29.148Z,4.34
2023-01-21T00:30:59.261Z,4.34
2023-01-21T00:33:29.605Z,4.34
2023-01-21T00:36:01.459Z,4.32
2023-01-21T00:38:29.772Z,4.35
2023-01-21T00:41:01.998Z,4.31
2023-01-21T00:43:29.698Z,4.35
2023-01-21T00:45:57.691Z,4.34
2023-01-21T00:48:25.829Z,4.30
2023-01-21T00:50:56.084Z,4.34
2023-01-21T00:53:24.451Z,4.34
2023-01-21T00:55:52.225Z,4.33
2023-01-21T00:58:20.302Z,4.33
2023-01-21T01:00:48.162Z,4.32
2023-01-21T01:03:15.850Z,4.30
2023-01-21T01:05:43.587Z,4.28
2023-01-21T01:08:12.628Z,4.28
2023-01-21T01:10:40.282Z,4.26
2023-01-21T01:13:08.008Z,4.21
2023-01-21T01:15:35.711Z,4.20
2023-01-21T01:18:03.472Z,4.18
2023-01-21T01:20:31.159Z,4.15
2023-01-21T01:22:58.864Z,4.15
2023-01-21T01:25:27.902Z,4.16
2023-01-21T01:27:55.571Z,4.19
2023-01-21T01:30:23.240Z,4.20
2023-01-21T01:32:50.925Z,4.16
2023-01-21T01:35:18.624Z,4.15
2023-01-21T01:37:46.307Z,4.15
2023-01-21T01:40:15.042Z,4.19
2023-01-21T01:42:44.243Z,4.17
2023-01-21T01:45:20.171Z,4.14
2023-01-21T01:47:51.087Z,4.14
2023-01-21T01:50:20.964Z,4.14
2023-01-21T01:52:48.782Z,4.15
2023-01-21T01:55:16.604Z,4.17
2023-01-21T01:57:50.982Z,4.17
2023-01-21T02:00:21.170Z,4.18
2023-01-21T02:03:02.985Z,4.17
2023-01-21T02:05:30.734Z,4.16
2023-01-21T02:07:58.704Z,4.17
2023-01-21T02:10:26.425Z,4.17
2023-01-21T02:12:55.673Z,4.19
2023-01-21T02:15:25.938Z,4.19
2023-01-21T02:18:03.403Z,4.18
2023-01-21T02:21:03.437Z,4.19
2023-01-21T02:23:52.124Z,4.18
2023-01-21T02:27:01.431Z,4.16
2023-01-21T02:29:55.704Z,4.16
2023-01-21T02:32:43.683Z,4.14
2023-01-21T02:35:19.597Z,4.16
2023-01-21T02:37:54.251Z,4.11
2023-01-21T02:40:30.183Z,4.11
2023-01-21T02:43:07.522Z,4.00
2023-01-21T02:45:42.395Z,4.08
2023-01-21T02:48:17.484Z,4.09
2023-01-21T02:50:49.302Z,4.09
2023-01-21T02:53:25.990Z,4.12
2023-01-21T02:55:54.730Z,4.10
2023-01-21T02:58:29.958Z,4.09
2023-01-21T03:01:12.389Z,4.07
2023-01-21T03:04:04.557Z,4.05
2023-01-21T03:07:00.666Z,4.06
2023-01-21T03:09:31.091Z,4.07
2023-01-21T03:12:09.000Z,4.06
2023-01-21T03:14:58.803Z,4.01
2023-01-21T03:17:35.932Z,4.01
2023-01-21T03:20:09.678Z,3.98
2023-01-21T03:22:40.175Z,3.98
2023-01-21T03:25:10.143Z,3.98
2023-01-21T03:27:41.634Z,3.98
2023-01-21T03:30:14.230Z,3.97
2023-01-21T03:32:44.627Z,3.97
2023-01-21T03:35:17.391Z,3.95
2023-01-21T03:37:49.734Z,3.95
2023-01-21T03:40:22.935Z,3.95
2023-01-21T03:42:52.638Z,3.95
2023-01-21T03:45:30.974Z,3.96
2023-01-21T03:48:02.262Z,3.96
2023-01-21T03:50:37.407Z,3.95
2023-01-21T03:53:07.976Z,3.93
2023-01-21T03:55:37.150Z,3.90
2023-01-21T03:58:04.871Z,3.91
2023-01-21T04:00:32.600Z,3.89
2023-01-21T04:03:00.319Z,3.89
2023-01-21T04:05:27.989Z,3.88
2023-01-21T04:07:55.666Z,3.85
2023-01-21T04:10:24.714Z,3.86
2023-01-21T04:12:52.427Z,3.87
2023-01-21T04:15:20.148Z,3.85
2023-01-21T04:17:47.901Z,3.84
2023-01-21T04:20:16.029Z,3.84
2023-01-21T04:22:43.891Z,3.83
2023-01-21T04:25:11.604Z,3.80
2023-01-21T04:27:40.640Z,3.80
2023-01-21T04:30:09.708Z,3.77
2023-01-21T04:32:37.455Z,3.77
2023-01-21T04:35:05.662Z,3.75
2023-01-21T04:37:33.443Z,3.74
2023-01-21T04:40:01.131Z,3.73
2023-01-21T04:42:28.852Z,3.74
2023-01-21T04:44:57.896Z,3.76
2023-01-21T04:47:25.661Z,3.76
2023-01-21T04:49:53.592Z,3.74
2023-01-21T04:52:21.374Z,3.76
2023-01-21T04:54:49.037Z,3.75
2023-01-21T04:57:16.744Z,3.72
2023-01-21T04:59:44.452Z,3.70
2023-01-21T05:02:14.538Z,3.68
2023-01-21T05:04:42.341Z,3.68
2023-01-21T05:07:11.702Z,3.68
2023-01-21T05:09:39.387Z,3.70
2023-01-21T05:12:07.777Z,3.70
2023-01-21T05:14:35.556Z,3.70
2023-01-21T05:17:03.478Z,3.70
2023-01-21T05:19:32.624Z,3.69
2023-01-21T05:22:00.381Z,3.65
2023-01-21T05:24:28.041Z,3.69
2023-01-21T05:26:55.914Z,3.68
2023-01-21T05:29:23.587Z,3.66
2023-01-21T05:31:51.372Z,3.67
2023-01-21T05:34:19.151Z,3.63
2023-01-21T05:36:48.263Z,3.67
2023-01-21T05:39:16.211Z,3.67
2023-01-21T05:41:43.948Z,3.66
2023-01-21T05:44:11.871Z,3.63
2023-01-21T05:46:39.615Z,3.63
2023-01-21T05:49:07.359Z,3.65
2023-01-21T05:51:35.087Z,3.63
2023-01-21T05:54:04.218Z,3.64
2023-01-21T05:56:31.917Z,3.63
2023-01-21T05:58:59.662Z,3.63
2023-01-21T06:01:27.481Z,3.60
2023-01-21T06:03:55.263Z,3.65
2023-01-21T06:06:23.027Z,3.76
2023-01-21T06:08:50.730Z,3.86
2023-01-21T06:11:19.873Z,4.03
2023-01-21T06:13:47.582Z,4.15
2023-01-21T06:16:15.273Z,4.26
2023-01-21T06:18:42.993Z,4.41
2023-01-21T06:21:10.702Z,4.54
2023-01-21T06:23:38.426Z,4.68
2023-01-21T06:26:06.462Z,4.80
2023-01-21T06:28:35.531Z,4.92
2023-01-21T06:31:03.995Z,5.01
2023-01-21T06:33:31.753Z,5.13
2023-01-21T06:35:59.444Z,5.16
2023-01-21T06:38:27.144Z,5.19
2023-01-21T06:40:54.881Z,5.26
2023-01-21T06:43:22.575Z,5.26
2023-01-21T06:45:51.621Z,5.28
2023-01-21T06:48:19.462Z,5.34
2023-01-21T06:50:47.161Z,5.31
2023-01-21T06:53:15.651Z,5.19
2023-01-21T06:55:43.393Z,5.06
2023-01-21T06:58:11.132Z,4.94
2023-01-21T07:00:38.856Z,4.79
2023-01-21T07:03:07.948Z,4.63
2023-01-21T07:05:35.690Z,4.51
2023-01-21T07:08:03.351Z,4.44
2023-01-21T07:10:31.109Z,4.32
2023-01-21T07:12:58.851Z,4.24
2023-01-21T07:15:30.825Z,4.18
2023-01-21T07:17:58.588Z,4.15
2023-01-21T07:20:27.679Z,4.10
2023-01-21T07:22:55.427Z,4.08
2023-01-21T07:25:23.190Z,4.02
2023-01-21T07:27:50.911Z,3.98
2023-01-21T07:30:20.092Z,3.93
2023-01-21T07:32:48.571Z,3.90
2023-01-21T07:35:16.607Z,3.87
2023-01-21T07:37:45.867Z,3.84
2023-01-21T07:40:14.598Z,3.82
2023-01-21T07:42:42.288Z,3.77
2023-01-21T07:45:10.850Z,3.74
2023-01-21T07:47:38.525Z,3.81
2023-01-21T07:50:08.759Z,3.91
2023-01-21T07:52:36.693Z,4.11
2023-01-21T07:55:07.950Z,4.24
2023-01-21T07:57:36.341Z,4.40
2023-01-21T08:00:05.310Z,4.55
2023-01-21T08:02:33.211Z,4.70
2023-01-21T08:05:00.986Z,4.83
2023-01-21T08:07:28.721Z,4.97
2023-01-21T08:09:56.401Z,5.08
2023-01-21T08:12:27.247Z,4.79
2023-01-21T08:14:55.303Z,4.81
2023-01-21T08:17:23.004Z,4.95
2023-01-21T08:19:50.659Z,4.95
2023-01-21T08:22:18.338Z,4.86
2023-01-21T08:24:46.047Z,4.74
2023-01-21T08:27:13.781Z,4.57
2023-01-21T08:29:42.926Z,4.45
2023-01-21T08:32:11.167Z,4.37
2023-01-21T08:34:38.976Z,4.31
2023-01-21T08:37:06.703Z,4.24
2023-01-21T08:39:34.511Z,4.22
2023-01-21T08:42:02.218Z,4.17
2023-01-21T08:44:29.887Z,4.10
2023-01-21T08:46:58.976Z,4.03
2023-01-21T08:49:26.655Z,3.98
2023-01-21T08:51:54.613Z,3.96
2023-01-21T08:54:22.302Z,3.90
2023-01-21T08:56:50.017Z,3.89
2023-01-21T08:59:17.751Z,3.83
2023-01-21T09:01:45.463Z,3.69
2023-01-21T09:04:14.606Z,3.77
2023-01-21T09:06:42.315Z,3.78
2023-01-21T09:09:12.027Z,3.76
2023-01-21T09:11:39.797Z,3.72
2023-01-21T09:14:07.511Z,3.72
2023-01-21T09:16:36.403Z,3.74
2023-01-21T09:19:04.666Z,3.86
2023-01-21T09:21:35.827Z,3.90
2023-01-21T09:24:03.763Z,4.03
2023-01-21T09:26:31.419Z,4.22
2023-01-21T09:29:01.009Z,4.33
2023-01-21T09:31:31.002Z,4.45
2023-01-21T09:34:00.616Z,4.56
2023-01-21T09:36:30.846Z,4.66
2023-01-21T09:39:00.422Z,4.77
2023-01-21T09:41:31.295Z,4.76
2023-01-21T09:44:13.900Z,4.74
2023-01-21T09:46:47.954Z,4.66
2023-01-21T09:49:20.874Z,4.57
2023-01-21T09:51:57.761Z,4.47
2023-01-21T09:54:29.465Z,4.36
2023-01-21T09:57:18.126Z,4.35
2023-01-21T10:00:01.211Z,4.25
2023-01-21T10:02:49.812Z,4.15
2023-01-21T10:06:02.007Z,4.16
2023-01-21T10:08:38.412Z,4.04
2023-01-21T10:11:22.210Z,3.91
2023-01-21T10:14:06.064Z,3.79
2023-01-21T10:16:43.827Z,3.75
2023-01-21T10:19:15.819Z,3.76
2023-01-21T10:21:51.817Z,3.68
2023-01-21T10:24:25.515Z,3.78
2023-01-21T10:26:55.556Z,3.77
2023-01-21T10:29:26.730Z,3.70
2023-01-21T10:31:59.381Z,3.70
2023-01-21T10:34:31.578Z,3.64
2023-01-21T10:37:09.605Z,3.81
2023-01-21T10:39:46.292Z,4.01
2023-01-21T10:42:52.745Z,4.25
2023-01-21T10:45:41.522Z,4.48
2023-01-21T10:48:16.682Z,4.61
2023-01-21T10:50:51.287Z,4.94
2023-01-21T10:53:27.294Z,5.09
2023-01-21T10:56:06.922Z,5.05
2023-01-21T10:58:38.795Z,4.97
2023-01-21T11:01:13.620Z,4.85
2023-01-21T11:03:44.898Z,4.73
2023-01-21T11:06:15.000Z,4.64
2023-01-21T11:08:46.030Z,4.54
2023-01-21T11:11:15.043Z,4.49
2023-01-21T11:13:43.062Z,4.43
2023-01-21T11:16:12.231Z,4.39
2023-01-21T11:18:42.387Z,4.35
2023-01-21T11:21:18.527Z,4.35
2023-01-21T11:23:54.496Z,4.29
2023-01-21T11:26:25.439Z,4.29
2023-01-21T11:29:12.908Z,4.26
2023-01-21T11:31:44.537Z,4.25
2023-01-21T11:34:16.059Z,4.24
2023-01-21T11:36:58.907Z,4.23
2023-01-21T11:39:27.987Z,4.18
2023-01-21T11:41:57.359Z,4.21
2023-01-21T11:44:25.594Z,4.21
2023-01-21T11:46:54.764Z,4.21
2023-01-21T11:49:28.285Z,4.23
2023-01-21T11:52:15.009Z,4.30
2023-01-21T11:54:42.866Z,4.33
2023-01-21T11:57:25.510Z,4.33
2023-01-21T11:59:57.882Z,4.32
2023-01-21T12:02:31.322Z,4.33
2023-01-21T12:05:03.035Z,4.31
2023-01-21T12:07:33.358Z,4.32
2023-01-21T12:10:08.795Z,4.30
2023-01-21T12:12:51.808Z,4.33
2023-01-21T12:15:33.334Z,4.33
2023-01-21T12:18:14.491Z,4.32
2023-01-21T12:20:52.807Z,4.33
2023-01-21T12:23:38.158Z,4.22
2023-01-21T12:26:18.403Z,4.42
2023-01-21T12:29:03.560Z,4.64
2023-01-21T12:31:35.113Z,4.83
2023-01-21T12:34:10.785Z,5.02
2023-01-21T12:36:45.959Z,5.23
2023-01-21T12:39:19.630Z,5.45
2023-01-21T12:41:53.186Z,5.64
2023-01-21T12:44:28.788Z,5.80
2023-01-21T12:47:01.756Z,5.96
2023-01-21T12:49:47.998Z,6.08
2023-01-21T12:52:23.429Z,6.17
2023-01-21T12:54:58.735Z,6.20
2023-01-21T12:57:30.934Z,6.19
2023-01-21T13:00:04.392Z,6.05
2023-01-21T13:02:36.875Z,5.89
2023-01-21T13:05:13.715Z,5.71
2023-01-21T13:07:47.142Z,5.55
2023-01-21T13:10:20.568Z,5.42
2023-01-21T13:12:52.626Z,5.34
2023-01-21T13:15:23.411Z,5.30
2023-01-21T13:17:54.745Z,5.22
2023-01-21T13:20:24.795Z,5.17
2023-01-21T13:23:02.934Z,5.10
2023-01-21T13:25:38.677Z,5.00
2023-01-21T13:28:14.467Z,5.10
2023-01-21T13:30:47.351Z,5.28
2023-01-21T13:33:28.701Z,5.48
2023-01-21T13:36:12.520Z,5.65
2023-01-21T13:38:46.580Z,5.78
2023-01-21T13:41:25.111Z,5.91
2023-01-21T13:44:13.411Z,6.02
2023-01-21T13:46:52.679Z,6.21
2023-01-21T13:49:49.991Z,6.36
2023-01-21T13:52:24.255Z,6.41
2023-01-21T13:55:13.005Z,6.47
2023-01-21T13:58:02.762Z,6.36
2023-01-21T14:00:34.681Z,6.23
2023-01-21T14:03:10.104Z,6.05
2023-01-21T14:05:42.092Z,5.86
2023-01-21T14:08:16.243Z,5.68
2023-01-21T14:10:49.533Z,5.56
2023-01-21T14:13:55.575Z,5.44
2023-01-21T14:16:47.649Z,5.36
2023-01-21T14:19:32.007Z,5.26
2023-01-21T14:22:20.074Z,5.17
2023-01-21T14:25:02.972Z,5.04
2023-01-21T14:27:42.987Z,4.95
2023-01-21T14:30:16.996Z,4.95
2023-01-21T14:32:49.870Z,5.12
2023-01-21T14:35:23.747Z,5.30
2023-01-21T14:38:04.193Z,5.51
2023-01-21T14:40:35.641Z,5.64
2023-01-21T14:43:03.520Z,5.86
2023-01-21T14:45:53.198Z,6.05
2023-01-21T14:48:29.738Z,6.23
2023-01-21T14:51:11.817Z,6.22
2023-01-21T14:53:48.945Z,6.15
2023-01-21T14:56:31.683Z,5.97
2023-01-21T14:59:02.469Z,5.82
2023-01-21T15:01:38.618Z,5.67
2023-01-21T15:04:20.079Z,5.52
2023-01-21T15:06:50.323Z,5.44
2023-01-21T15:09:24.356Z,5.34
2023-01-21T15:11:59.688Z,5.30
2023-01-21T15:14:30.195Z,5.23
2023-01-21T15:16:57.943Z,5.19
2023-01-21T15:19:28.988Z,5.09
2023-01-21T15:22:21.054Z,5.08
2023-01-21T15:25:25.077Z,5.03
2023-01-21T15:28:43.673Z,4.96
2023-01-21T15:31:34.522Z,4.94
2023-01-21T15:34:07.506Z,4.90
2023-01-21T15:36:44.281Z,4.88
2023-01-21T15:39:15.720Z,4.86
2023-01-21T15:41:55.768Z,4.85
2023-01-21T15:44:41.617Z,4.82
2023-01-21T15:47:25.828Z,4.80
2023-01-21T15:50:02.796Z,4.78
2023-01-21T15:52:37.994Z,4.80
2023-01-21T15:55:22.422Z,4.78
2023-01-21T15:57:57.927Z,4.80
2023-01-21T16:00:32.897Z,4.71
2023-01-21T16:03:11.684Z,4.79
2023-01-21T16:05:48.577Z,4.74
2023-01-21T16:08:27.319Z,4.80
2023-01-21T16:11:07.892Z,4.77
2023-01-21T16:13:48.103Z,4.78
2023-01-21T16:16:26.217Z,4.76
2023-01-21T16:19:00.766Z,4.77
2023-01-21T16:21:33.804Z,4.77
2023-01-21T16:24:06.744Z,4.78
2023-01-21T16:26:34.675Z,4.76
2023-01-21T16:29:02.655Z,4.75
2023-01-21T16:31:30.472Z,4.75
2023-01-21T16:33:59.598Z,4.74
2023-01-21T16:36:27.388Z,4.73
2023-01-21T16:38:55.152Z,4.71
2023-01-21T16:41:25.621Z,4.70
2023-01-21T16:43:56.309Z,4.70
2023-01-21T16:46:27.183Z,4.71
2023-01-21T16:48:58.281Z,4.70
2023-01-21T16:51:32.243Z,4.69
2023-01-21T16:54:25.058Z,4.68
2023-01-21T16:56:55.380Z,4.67
2023-01-21T16:59:27.329Z,4.64
2023-01-21T17:01:56.086Z,4.64
2023-01-21T17:04:24.171Z,4.66
2023-01-21T17:06:53.964Z,4.66
2023-01-21T17:09:29.511Z,4.67
2023-01-21T17:11:59.422Z,4.66
2023-01-21T17:14:30.930Z,4.66
2023-01-21T17:17:01.221Z,4.70
2023-01-21T17:19:33.739Z,4.66
2023-01-21T17:22:11.190Z,4.66
2023-01-21T17:24:44.098Z,4.64
2023-01-21T17:27:17.445Z,4.65
2023-01-21T17:29:45.529Z,4.68
2023-01-21T17:32:26.445Z,4.68
2023-01-21T17:35:10.927Z,4.68
2023-01-21T17:37:45.574Z,4.67
2023-01-21T17:40:27.705Z,4.68
2023-01-21T17:42:56.168Z,4.65
2023-01-21T17:45:30.063Z,4.66
2023-01-21T17:48:14.883Z,4.64
2023-01-21T17:50:47.136Z,4.76
2023-01-21T17:53:23.240Z,4.94
2023-01-21T17:55:59.936Z,5.12
2023-01-21T17:58:45.793Z,5.35
2023-01-21T18:01:14.796Z,5.54
2023-01-21T18:03:42.650Z,5.67
2023-01-21T18:06:17.646Z,5.69
2023-01-21T18:08:47.086Z,5.65
2023-01-21T18:11:16.646Z,5.60
2023-01-21T18:13:44.653Z,5.46
2023-01-21T18:16:12.453Z,5.33
2023-01-21T18:18:40.389Z,5.24
2023-01-21T18:21:15.945Z,5.18
2023-01-21T18:23:43.729Z,5.09
2023-01-21T18:26:18.840Z,5.01
2023-01-21T18:28:46.576Z,4.98
2023-01-21T18:31:14.474Z,4.97
2023-01-21T18:33:42.217Z,4.98
2023-01-21T18:36:12.292Z,4.94
2023-01-21T18:38:39.995Z,4.90
2023-01-21T18:41:08.817Z,4.86
2023-01-21T18:43:38.096Z,4.85
2023-01-21T18:46:12.160Z,4.87
2023-01-21T18:48:39.929Z,4.84
2023-01-21T18:51:07.648Z,4.85
2023-01-21T18:53:35.475Z,4.86
2023-01-21T18:56:06.217Z,4.85
2023-01-21T18:58:34.084Z,4.86
2023-01-21T19:01:10.983Z,4.98
2023-01-21T19:03:48.714Z,5.16
2023-01-21T19:06:17.228Z,5.26
2023-01-21T19:08:48.540Z,5.45
2023-01-21T19:11:16.745Z,5.64
2023-01-21T19:13:44.503Z,5.67
2023-01-21T19:16:17.164Z,5.66
2023-01-21T19:18:45.050Z,5.58
2023-01-21T19:21:13.144Z,5.48
2023-01-21T19:23:41.138Z,5.36
2023-01-21T19:26:13.708Z,5.32
2023-01-21T19:28:41.693Z,5.20
2023-01-21T19:31:09.457Z,5.13
2023-01-21T19:33:39.816Z,5.01
2023-01-21T19:36:15.011Z,4.99
2023-01-21T19:38:44.118Z,4.96
2023-01-21T19:41:11.992Z,4.93
2023-01-21T19:43:41.202Z,4.86
2023-01-21T19:46:12.193Z,4.84
2023-01-21T19:48:41.845Z,4.84
2023-01-21T19:51:09.896Z,4.80
2023-01-21T19:53:37.696Z,4.78
2023-01-21T19:56:05.942Z,4.76
2023-01-21T19:58:34.070Z,4.65
2023-01-21T20:01:01.824Z,4.68
2023-01-21T20:03:30.605Z,4.66
2023-01-21T20:06:03.137Z,4.56
2023-01-21T20:08:33.266Z,4.57
2023-01-21T20:11:01.010Z,4.61
2023-01-21T20:13:32.145Z,4.58
2023-01-21T20:16:03.598Z,4.60
2023-01-21T20:18:33.392Z,4.62
2023-01-21T20:21:02.501Z,4.61
2023-01-21T20:23:32.545Z,4.48
2023-01-21T20:26:01.125Z,4.57
2023-01-21T20:28:35.729Z,4.60
2023-01-21T20:31:06.513Z,4.59
2023-01-21T20:33:35.419Z,4.60
2023-01-21T20:36:07.170Z,4.56
2023-01-21T20:38:37.147Z,4.57
2023-01-21T20:41:06.205Z,4.57
2023-01-21T20:43:33.967Z,4.53
2023-01-21T20:46:04.006Z,4.47
2023-01-21T20:48:34.653Z,4.50
2023-01-21T20:51:04.003Z,4.50
2023-01-21T20:53:32.008Z,4.51
2023-01-21T20:56:03.029Z,4.48
2023-01-21T20:58:31.414Z,4.47
2023-01-21T21:00:59.203Z,4.48
2023-01-21T21:03:27.045Z,4.47
2023-01-21T21:05:55.243Z,4.47
2023-01-21T21:08:24.969Z,4.46
2023-01-21T21:10:52.926Z,4.48
2023-01-21T21:13:20.658Z,4.46
2023-01-21T21:15:50.596Z,4.41
2023-01-21T21:18:18.304Z,4.42
2023-01-21T21:20:46.083Z,4.45
2023-01-21T21:23:15.562Z,4.45
2023-01-21T21:25:46.202Z,4.41
2023-01-21T21:28:15.847Z,4.35
2023-01-21T21:30:44.098Z,4.35
2023-01-21T21:33:18.054Z,4.35
2023-01-21T21:35:46.832Z,4.34
2023-01-21T21:38:16.894Z,4.34
2023-01-21T21:40:47.721Z,4.35
2023-01-21T21:43:32.719Z,4.35
2023-01-21T21:46:22.871Z,4.35
2023-01-21T21:48:52.026Z,4.33
2023-01-21T21:51:21.739Z,4.29
2023-01-21T21:53:49.996Z,4.23
2023-01-21T21:56:20.746Z,4.23
2023-01-21T21:58:49.535Z,4.20
2023-01-21T22:01:19.467Z,4.15
2023-01-21T22:03:47.309Z,4.04
2023-01-21T22:06:17.667Z,4.13
2023-01-21T22:08:45.654Z,4.03
2023-01-21T22:11:17.605Z,4.05
2023-01-21T22:13:50.116Z,4.10
2023-01-21T22:16:20.518Z,4.07
2023-01-21T22:18:48.644Z,4.05
2023-01-21T22:21:18.212Z,4.08
2023-01-21T22:23:46.275Z,4.01
2023-01-21T22:26:16.593Z,3.97
2023-01-21T22:28:46.255Z,3.97
2023-01-21T22:31:16.539Z,3.88
2023-01-21T22:33:44.630Z,3.94
2023-01-21T22:36:14.964Z,3.97
2023-01-21T22:38:43.643Z,3.93
2023-01-21T22:41:12.816Z,3.93
2023-01-21T22:43:41.846Z,3.91
2023-01-21T22:46:13.385Z,3.92
2023-01-21T22:48:41.512Z,3.93
2023-01-21T22:51:12.306Z,3.92
2023-01-21T22:53:40.827Z,3.98
2023-01-21T22:56:08.974Z,3.99
2023-01-21T22:58:37.002Z,3.96
2023-01-21T23:01:06.180Z,3.88
2023-01-21T23:03:35.363Z,3.85
2023-01-21T23:06:04.917Z,3.85
2023-01-21T23:08:32.935Z,3.86
2023-01-21T23:11:01.747Z,3.76
2023-01-21T23:13:29.516Z,3.73
2023-01-21T23:15:57.281Z,3.70
2023-01-21T23:18:26.863Z,3.70
2023-01-21T23:20:56.255Z,3.72
2023-01-21T23:23:24.890Z,3.73
2023-01-21T23:25:52.772Z,3.74
2023-01-21T23:28:20.411Z,3.77
2023-01-21T23:30:48.196Z,3.65
2023-01-21T23:33:16.130Z,3.73
2023-01-21T23:35:43.854Z,3.77
2023-01-21T23:38:12.982Z,3.78
2023-01-21T23:40:40.842Z,3.80
2023-01-21T23:43:08.587Z,3.79
2023-01-21T23:45:36.291Z,3.76
2023-01-21T23:48:04.262Z,3.78
2023-01-21T23:50:32.010Z,3.78
2023-01-21T23:52:59.740Z,3.76
2023-01-21T23:55:28.840Z,3.82
2023-01-21T23:57:57.288Z,3.80
